Latest Weather Observations for Roseworthy

IDS60801

Issued at 3:41 pm CST Tuesday 20 April 2021 (issued every 10 minutes, with the page automatically refreshed every 10 minutes)

About weather observations | Map of weather stations | Latest weather observations for SA | Other Formats
Station Details ID: 023122 Name: ROSEWORTHY AWS Lat: -34.51 Lon: 138.68 Height: 65.0 m
Data from the previous 72 hours. | See also: Recent months at Roseworthy
Date/Time
CST
Temp
°C
App
Temp
°C
Dew
Point
°C
Rel
Hum
%
Delta-T
°C
Wind Press
QNH
hPa
Press
MSL
hPa
Rain since
9am
mm
Dir  Spd
km/h
Gust
km/h
Spd
kts
Gust
kts
20/03:30pm 17.1 11.5 7.2 52 4.9 SW 26 35 14 19 1016.5 1016.4 2.0
20/03:00pm 17.6 12.5 7.6 52 5.1 SSW 24 35 13 19 1016.2 1016.1 2.0
20/02:30pm 17.1 13.8 9.5 61 4.0 SSW 17 24 9 13 1016.1 1016.0 2.0
20/02:00pm 17.2 12.6 9.6 61 4.0 SSW 24 35 13 19 1016.2 1016.1 2.0
20/01:30pm 17.0 12.4 11.1 68 3.2 SSW 26 35 14 19 1016.0 1015.9 2.0
20/01:00pm 16.7 12.3 11.6 72 2.8 SSW 26 35 14 19 1016.0 1015.9 2.0
20/12:30pm 16.9 12.3 12.2 74 2.6 SSW 28 33 15 18 1015.9 1015.8 2.0
20/12:00pm 15.8 12.8 13.8 88 1.1 SSW 22 32 12 17 1015.9 1015.8 2.0
20/11:30am 16.1 12.7 14.8 92 0.7 SSW 26 33 14 18 1015.6 1015.5 2.0
20/11:00am 15.4 13.2 14.9 97 0.3 SW 20 32 11 17 1015.5 1015.4 2.0
20/10:30am 14.8 12.0 14.3 97 0.3 WSW 22 33 12 18 1015.1 1014.9 1.6
20/10:00am 17.1 11.6 13.6 80 2.0 WNW 35 52 19 28 1014.7 1014.5 0.0
20/09:30am 17.5 12.1 12.2 71 2.9 WNW 32 41 17 22 1014.5 1014.3 0.0
20/09:00am 16.2 10.5 11.2 72 2.7 NW 32 39 17 21 1014.6 1014.4 0.0
20/08:30am 16.0 11.1 11.2 73 2.6 NW 28 37 15 20 1014.5 1014.3 0.0
20/08:00am 13.7 9.5 9.7 77 2.1 NNW 22 28 12 15 1014.3 1014.1 0.0
20/07:30am 11.3 7.1 8.2 81 1.5 NNW 20 26 11 14 1014.2 1014.0 0.0
20/07:00am 9.5 5.6 7.1 85 1.1 N 17 20 9 11 1013.9 1013.7 0.0
20/06:30am 9.0 4.7 7.0 87 0.9 N 19 22 10 12 1013.9 1013.7 0.0
20/06:00am 9.2 5.0 7.3 88 0.9 N 19 22 10 12 1013.8 1013.6 0.0
20/05:30am 8.4 4.5 6.9 90 0.7 N 17 17 9 9 1013.9 1013.7 0.0
20/05:00am 9.7 6.4 8.0 89 0.8 N 15 19 8 10 1013.7 1013.5 0.0
20/04:30am 8.1 4.8 6.4 89 0.8 N 13 17 7 9 1013.6 1013.4 0.0
20/04:00am 9.7 6.3 7.6 87 1.0 N 15 17 8 9 1013.5 1013.3 0.0
20/03:30am 8.5 4.4 6.3 86 1.0 NNE 17 17 9 9 1013.5 1013.3 0.0
20/03:00am 8.8 5.1 6.3 84 1.2 NNE 15 17 8 9 1013.8 1013.6 0.0
20/02:30am 9.4 5.4 6.8 84 1.2 NNE 17 20 9 11 1013.9 1013.7 0.0
20/02:00am 9.1 4.4 6.0 81 1.4 NNE 20 22 11 12 1014.3 1014.1 0.0
20/01:30am 9.0 4.4 5.7 80 1.5 NNE 19 20 10 11 1014.7 1014.5 0.0
20/01:00am 8.7 4.4 5.3 79 1.5 NNE 17 17 9 9 1014.9 1014.7 0.0
20/12:30am 8.6 4.2 5.0 78 1.6 NNE 17 17 9 9 1014.8 1014.6 0.0
20/12:00am 8.5 4.1 4.9 78 1.6 NE 17 17 9 9 1014.9 1014.7 0.0
 
Date/Time
CST
Temp
°C
App
Temp
°C
Dew
Point
°C
Rel
Hum
%
Delta-T
°C
Wind Press
QNH
hPa
Press
MSL
hPa
Rain since
9am
mm
Dir  Spd
km/h
Gust
km/h
Spd
kts
Gust
kts
19/11:30pm 9.0 4.7 5.2 77 1.7 NE 17 17 9 9 1015.0 1014.8 0.0
19/11:00pm 8.5 4.8 4.7 77 1.7 NE 13 15 7 8 1015.2 1015.0 0.0
19/10:30pm 8.4 5.1 4.6 77 1.7 NE 11 15 6 8 1015.3 1015.2 0.0
19/10:00pm 8.8 5.2 4.8 76 1.8 NE 13 13 7 7 1015.3 1015.2 0.0
19/09:30pm 9.0 5.0 4.8 75 1.9 NE 15 17 8 9 1015.4 1015.3 0.0
19/09:00pm 9.3 5.6 4.7 73 2.1 NE 13 13 7 7 1015.5 1015.4 0.0
19/08:30pm 9.3 6.0 4.5 72 2.1 NE 11 13 6 7 1015.5 1015.4 0.0
19/08:00pm 9.5 6.5 4.1 69 2.4 ENE 9 11 5 6 1015.5 1015.4 0.0
19/07:30pm 10.1 7.7 4.3 67 2.6 E 6 7 3 4 1015.6 1015.5 0.0
19/07:00pm 10.8 9.4 3.6 61 3.2 CALM 0 0 0 0 1015.6 1015.5 0.0
19/06:30pm 14.7 12.6 6.0 56 4.2 SW 6 7 3 4 1015.6 1015.5 0.0
19/06:00pm 16.6 13.7 6.4 51 5.0 WSW 11 13 6 7 1015.5 1015.4 0.0
19/05:30pm 18.5 14.9 6.7 46 5.9 WSW 15 19 8 10 1015.4 1015.3 0.0
19/05:00pm 19.7 14.6 6.1 41 6.8 W 22 28 12 15 1015.4 1015.3 0.0
19/04:30pm 20.5 14.7 6.1 39 7.2 WNW 26 32 14 17 1015.4 1015.3 0.0
19/04:00pm 21.0 15.3 6.9 40 7.2 WNW 26 37 14 20 1015.5 1015.4 0.0
19/03:30pm 20.5 14.4 6.5 40 7.1 WNW 28 37 15 20 1015.6 1015.5 0.0
19/03:00pm 20.9 15.2 6.8 40 7.2 W 26 35 14 19 1015.6 1015.5 0.0
19/02:30pm 22.2 16.2 7.2 38 7.8 W 28 37 15 20 1015.6 1015.5 0.0
19/02:00pm 22.0 16.7 7.0 38 7.7 NW 24 33 13 18 1015.7 1015.6 0.0
19/01:30pm 20.1 15.0 7.8 45 6.3 WNW 24 33 13 18 1016.2 1016.1 0.0
19/01:00pm 19.8 15.3 8.5 48 5.9 W 22 32 12 17 1016.9 1016.8 0.0
19/12:30pm 20.2 16.1 8.5 47 6.1 WNW 20 30 11 16 1017.5 1017.4 0.0
19/12:00pm 19.6 16.2 9.2 51 5.5 W 17 24 9 13 1018.1 1018.0 0.0
19/11:30am 18.6 14.7 9.4 55 4.8 WNW 20 30 11 16 1018.6 1018.5 0.0
19/11:00am 18.7 15.2 10.3 58 4.5 WNW 19 26 10 14 1019.0 1018.9 0.0
19/10:30am 17.2 13.6 9.9 62 3.8 W 19 24 10 13 1019.3 1019.2 0.0
19/10:00am 17.7 13.8 9.3 58 4.4 WNW 20 28 11 15 1019.5 1019.4 0.0
19/09:30am 17.4 14.0 9.3 59 4.2 NW 17 22 9 12 1019.7 1019.6 0.0
19/09:00am 15.8 12.9 9.7 67 3.2 N 15 20 8 11 1019.9 1019.8 0.2
19/08:30am 15.2 12.3 9.8 70 2.8 N 15 20 8 11 1019.9 1019.8 0.2
19/08:00am 13.8 10.9 9.6 76 2.2 NNE 15 19 8 10 1019.8 1019.7 0.2
19/07:30am 12.0 8.6 9.0 82 1.5 NE 17 19 9 10 1019.5 1019.4 0.2
19/07:00am 11.4 8.0 9.1 86 1.2 NNE 17 19 9 10 1019.6 1019.5 0.2
19/06:30am 11.3 8.7 9.4 88 1.0 NNE 13 17 7 9 1019.7 1019.6 0.2
19/06:00am 10.8 7.1 9.4 91 0.7 NNE 19 20 10 11 1019.6 1019.5 0.2
19/05:30am 9.5 6.0 8.7 95 0.4 NNE 17 19 9 10 1019.7 1019.6 0.2
19/05:00am 8.2 4.7 7.4 95 0.4 NNE 15 17 8 9 1019.7 1019.6 0.2
19/04:30am 8.3 4.8 7.2 93 0.5 NNE 15 17 8 9 1019.7 1019.6 0.2
19/04:00am 8.6 5.1 7.4 92 0.6 NNE 15 15 8 8 1019.7 1019.6 0.2
19/03:30am 9.2 5.8 7.8 91 0.7 NNE 15 15 8 8 1019.7 1019.6 0.2
19/03:00am 8.2 5.3 6.7 90 0.7 NE 11 13 6 7 1019.9 1019.8 0.2
19/02:30am 8.6 6.1 6.4 86 1.0 NE 9 9 5 5 1020.2 1020.1 0.2
19/02:00am 10.7 9.0 8.3 85 1.2 E 7 9 4 5 1020.7 1020.6 0.2
19/01:30am 11.3 9.7 8.9 85 1.2 ESE 7 9 4 5 1021.0 1020.9 0.2
19/01:00am 10.6 8.1 8.4 86 1.1 ENE 11 11 6 6 1021.2 1021.1 0.2
19/12:30am 9.8 7.2 7.6 86 1.0 NE 11 11 6 6 1021.4 1021.3 0.2
19/12:00am 9.5 7.0 6.6 82 1.3 NNE 9 9 5 5 1021.7 1021.6 0.2
 
Date/Time
CST
Temp
°C
App
Temp
°C
Dew
Point
°C
Rel
Hum
%
Delta-T
°C
Wind Press
QNH
hPa
Press
MSL
hPa
Rain since
9am
mm
Dir  Spd
km/h
Gust
km/h
Spd
kts
Gust
kts
18/11:30pm 11.5 8.9 7.6 77 1.9 N 11 13 6 7 1022.0 1021.9 0.2
18/11:00pm 12.8 10.8 8.7 76 2.1 N 9 11 5 6 1022.2 1022.1 0.2
18/10:30pm 12.8 11.1 8.3 74 2.2 N 7 9 4 5 1022.3 1022.2 0.2
18/10:00pm 12.8 10.8 8.5 75 2.1 N 9 9 5 5 1022.4 1022.3 0.2
18/09:30pm 12.1 9.7 7.2 72 2.4 N 9 9 5 5 1022.4 1022.3 0.2
18/09:00pm 15.2 15.1 9.3 68 3.0 CALM 0 0 0 0 1022.6 1022.5 0.2
18/08:30pm 14.8 14.5 8.7 67 3.1 CALM 0 0 0 0 1022.7 1022.6 0.2
18/08:00pm 15.7 15.5 8.9 64 3.5 CALM 0 0 0 0 1022.8 1022.7 0.2
18/07:30pm 15.9 15.7 8.9 63 3.6 CALM 0 0 0 0 1023.0 1022.9 0.2
18/07:00pm 16.3 15.7 9.0 62 3.8 W 2 6 1 3 1023.1 1023.0 0.2
18/06:30pm 16.8 15.2 8.8 59 4.1 WSW 7 11 4 6 1023.1 1023.0 0.2
18/06:00pm 17.3 14.5 8.7 57 4.4 WSW 13 17 7 9 1022.8 1022.7 0.2
18/05:30pm 17.5 14.7 8.6 56 4.6 SW 13 19 7 10 1022.7 1022.6 0.2
18/05:00pm 18.1 15.0 8.9 55 4.8 WSW 15 20 8 11 1022.8 1022.7 0.2
18/04:30pm 18.3 14.7 8.3 52 5.1 WSW 17 20 9 11 1022.7 1022.6 0.2
18/04:00pm 18.8 14.9 8.5 51 5.3 WSW 19 28 10 15 1022.7 1022.6 0.2
18/03:30pm 19.2 15.1 8.5 50 5.5 WSW 20 26 11 14 1022.8 1022.7 0.2
18/03:00pm 19.1 15.1 9.0 52 5.3 WSW 20 26 11 14 1022.8 1022.7 0.2
18/02:30pm 20.2 16.0 9.7 51 5.6 WSW 22 30 12 16 1022.8 1022.7 0.2
18/02:00pm 19.1 15.4 8.1 49 5.7 WSW 17 22 9 12 1023.2 1023.1 0.2
18/01:30pm 19.1 14.8 7.2 46 6.0 WSW 19 24 10 13 1023.4 1023.3 0.2
18/01:00pm 19.4 17.1 9.0 51 5.5 WSW 11 17 6 9 1023.9 1023.8 0.2
18/12:30pm 18.6 16.2 9.9 57 4.6 WSW 13 20 7 11 1024.3 1024.2 0.0
18/12:00pm 18.0 17.0 10.4 61 4.1 NW 6 13 3 7 1024.8 1024.7 0.0
18/11:30am 17.6 15.9 11.2 66 3.5 WNW 11 20 6 11 1025.3 1025.2 0.0
18/11:00am 17.8 16.5 11.4 66 3.5 WSW 9 13 5 7 1025.5 1025.4 0.0
18/10:30am 17.4 16.9 11.9 70 3.0 SSE 6 9 3 5 1025.8 1025.7 0.0
18/10:00am 16.3 15.9 12.3 77 2.2 SSW 6 9 3 5 1026.1 1026.0 0.0
18/09:30am 15.9 15.4 12.6 81 1.8 NW 7 11 4 6 1026.3 1026.2 0.0
18/09:00am 15.4 15.0 12.5 83 1.6 NE 6 11 3 6 1026.3 1026.2 0.0
18/08:30am 14.6 14.7 12.8 89 1.0 NNW 4 7 2 4 1026.4 1026.3 0.0
18/08:00am 14.0 13.5 13.7 98 0.2 NNE 9 11 5 6 1026.2 1026.1 0.0
18/07:30am 13.1 12.0 13.1 100 0.0 NNE 11 13 6 7 1026.0 1025.9 0.0
18/07:00am 12.6 10.9 12.4 99 0.1 NNE 13 15 7 8 1025.9 1025.8 0.0
18/06:30am 12.4 10.1 11.9 97 0.3 NNE 15 19 8 10 1025.9 1025.8 0.0
18/06:00am 12.7 11.5 11.6 93 0.6 NNE 9 11 5 6 1025.9 1025.8 0.0
18/05:30am 13.0 11.9 10.7 86 1.2 ENE 7 9 4 5 1025.9 1025.8 0.0
18/05:00am 13.3 11.4 10.5 83 1.5 ENE 11 15 6 8 1025.6 1025.5 0.0
18/04:30am 13.6 12.5 10.8 83 1.5 ENE 7 13 4 7 1025.7 1025.6 0.0
18/04:00am 13.3 11.1 10.7 84 1.4 N 13 15 7 8 1025.5 1025.4 0.0
18/03:30am 13.2 11.4 10.7 85 1.3 N 11 15 6 8 1025.7 1025.6 0.0
18/03:00am 13.2 11.0 10.9 86 1.2 N 13 17 7 9 1025.8 1025.7 0.0
18/02:30am 13.2 10.6 10.7 85 1.3 N 15 19 8 10 1025.9 1025.8 0.0
18/02:00am 14.3 12.0 10.5 78 2.0 NNW 13 15 7 8 1026.1 1026.0 0.0
18/01:30am 14.4 12.6 10.8 79 1.9 NNW 11 13 6 7 1026.3 1026.2 0.0
18/01:00am 14.1 14.3 10.5 79 1.9 CALM 0 0 0 0 1026.5 1026.4 0.0
18/12:30am 14.8 13.0 10.8 77 2.1 W 11 13 6 7 1026.7 1026.6 0.0
18/12:00am 14.9 13.1 10.7 76 2.2 SW 11 17 6 9 1026.7 1026.6 0.0
 
Date/Time
CST
Temp
°C
App
Temp
°C
Dew
Point
°C
Rel
Hum
%
Delta-T
°C
Wind Press
QNH
hPa
Press
MSL
hPa
Rain since
9am
mm
Dir  Spd
km/h
Gust
km/h
Spd
kts
Gust
kts
17/11:30pm 14.4 13.4 12.4 88 1.1 SW 9 13 5 7 1026.9 1026.8 0.0
17/11:00pm 14.1 12.8 9.3 73 2.5 NW 6 17 3 9 1027.2 1027.1 0.0
17/10:30pm 13.2 12.9 8.7 74 2.2 CALM 0 0 0 0 1027.2 1027.1 0.0
17/10:00pm 12.3 11.7 7.6 73 2.3 CALM 0 0 0 0 1027.3 1027.2 0.0
17/09:30pm 13.6 13.1 7.8 68 2.9 CALM 0 6 0 3 1027.1 1027.0 0.0
17/09:00pm 15.4 13.9 9.1 66 3.2 SSW 7 9 4 5 1027.2 1027.1 0.0
17/08:30pm 15.8 13.9 9.2 65 3.4 SSW 9 11 5 6 1027.3 1027.2 0.0
17/08:00pm 15.9 13.7 9.3 65 3.4 SSW 11 13 6 7 1027.3 1027.2 0.0
17/07:30pm 16.0 13.4 9.4 65 3.4 SSW 13 17 7 9 1027.3 1027.2 0.0
17/07:00pm 15.9 13.2 8.9 63 3.6 SSW 13 17 7 9 1027.3 1027.2 0.0
17/06:30pm 16.1 13.1 9.1 63 3.6 SSW 15 20 8 11 1027.1 1027.0 0.0
17/06:00pm 15.9 12.4 8.6 62 3.7 SW 17 20 9 11 1027.0 1026.9 0.0
17/05:30pm 16.3 12.7 8.3 59 4.0 SW 17 20 9 11 1026.7 1026.6 0.0
17/05:00pm 16.9 12.7 7.5 54 4.7 SW 19 26 10 14 1026.5 1026.4 0.0
17/04:30pm 17.9 13.7 7.6 51 5.2 SW 19 30 10 16 1026.3 1026.2 0.0
17/04:00pm 18.4 14.2 7.5 49 5.5 SSW 19 26 10 14 1026.2 1026.1 0.0

Other formats

Comma delimited format used in spreadsheet applications
http://www.bom.gov.au/fwo/IDS60801/IDS60801.95671.axf

JavaScript Object Notation format (JSON) in row-major order
http://www.bom.gov.au/fwo/IDS60801/IDS60801.95671.json

Data quality

Most of these data are generated automatically and are frequently updated. Quality checks on data are not normally performed. It is possible for incorrect values to appear. Refer to information at About Latest Weather Observations and please check the disclaimer before using these data.